createdAt,value
2018-12-13T00:00:00.813Z,2.57
2018-12-13T00:01:00.291Z,2.64
2018-12-13T00:02:00.784Z,2.54
2018-12-13T00:03:00.520Z,2.57
2018-12-13T00:04:00.246Z,2.68
2018-12-13T00:05:00.737Z,2.62
2018-12-13T00:06:00.733Z,2.71
2018-12-13T00:07:00.722Z,2.69
2018-12-13T00:08:00.456Z,2.74
2018-12-13T00:09:00.458Z,2.74
2018-12-13T00:10:00.679Z,2.74
2018-12-13T00:11:00.430Z,2.65
2018-12-13T00:12:00.657Z,2.67
2018-12-13T00:13:00.411Z,2.67
2018-12-13T00:14:00.654Z,2.57
2018-12-13T00:15:00.394Z,2.64
2018-12-13T00:16:00.377Z,2.56
2018-12-13T00:17:00.606Z,2.6
2018-12-13T00:18:00.347Z,2.6
2018-12-13T00:19:00.341Z,2.6
2018-12-13T00:20:00.071Z,2.62
2018-12-13T00:21:00.324Z,2.67
2018-12-13T00:22:00.307Z,2.71
2018-12-13T00:23:00.542Z,2.71
2018-12-13T00:24:00.530Z,2.68
2018-12-13T00:25:00.041Z,2.75
2018-12-13T00:26:00.504Z,2.69
2018-12-13T00:27:00.250Z,2.67
2018-12-13T00:27:59.992Z,2.6
2018-12-13T00:28:59.972Z,2.71
2018-12-13T00:29:59.955Z,2.68
2018-12-13T00:30:59.949Z,2.69
2018-12-13T00:32:00.437Z,2.75
2018-12-13T00:33:00.420Z,2.67
2018-12-13T00:34:00.438Z,2.69
2018-12-13T00:35:00.166Z,2.82
2018-12-13T00:36:00.164Z,2.69
2018-12-13T00:37:00.138Z,2.69
2018-12-13T00:38:00.391Z,2.72
2018-12-13T00:39:00.385Z,2.75
2018-12-13T00:39:59.854Z,2.69
2018-12-13T00:40:59.846Z,2.82
2018-12-13T00:42:00.097Z,2.75
2018-12-13T00:43:00.319Z,2.57
2018-12-13T00:44:00.071Z,2.57
2018-12-13T00:44:59.816Z,2.57
2018-12-13T00:45:59.789Z,2.62
2018-12-13T00:47:00.282Z,2.62
2018-12-13T00:47:59.774Z,2.54
2018-12-13T00:49:01.873Z,2.61
2018-12-13T00:50:00.264Z,2.61
2018-12-13T00:51:00.006Z,2.62
2018-12-13T00:51:59.975Z,2.62
2018-12-13T00:52:59.975Z,2.61
2018-12-13T00:53:59.945Z,2.61
2018-12-13T00:54:59.695Z,2.62
2018-12-13T00:55:59.950Z,2.5
2018-12-13T00:57:00.170Z,2.5
2018-12-13T00:57:59.909Z,2.54
2018-12-13T00:58:59.895Z,2.47
2018-12-13T01:00:00.138Z,2.54
2018-12-13T01:00:59.871Z,2.5
2018-12-13T01:01:59.613Z,2.43
2018-12-13T01:03:00.091Z,2.39
2018-12-13T01:03:59.864Z,2.42
2018-12-13T01:05:00.076Z,2.35
2018-12-13T01:06:00.090Z,2.35
2018-12-13T01:07:00.080Z,2.39
2018-12-13T01:07:59.800Z,2.28
2018-12-13T01:08:59.566Z,2.39
2018-12-13T01:09:59.777Z,2.25
2018-12-13T01:11:00.021Z,2.35
2018-12-13T01:12:00.005Z,2.38
2018-12-13T01:12:59.740Z,2.31
2018-12-13T01:13:59.489Z,2.38
2018-12-13T01:14:59.961Z,2.28
2018-12-13T01:15:59.726Z,2.25
2018-12-13T01:16:59.938Z,2.31
2018-12-13T01:17:59.965Z,2.39
2018-12-13T01:18:59.734Z,2.42
2018-12-13T01:19:59.914Z,2.32
2018-12-13T01:20:59.650Z,2.38
2018-12-13T01:21:59.897Z,2.38
2018-12-13T01:22:59.872Z,2.38
2018-12-13T01:23:59.358Z,2.29
2018-12-13T01:24:59.620Z,2.26
2018-12-13T01:25:59.843Z,2.2
2018-12-13T01:26:59.828Z,2.17
2018-12-13T01:27:59.829Z,2.22
2018-12-13T01:28:59.593Z,2.11
2018-12-13T01:29:59.546Z,2.06
2018-12-13T01:30:59.554Z,2.08
2018-12-13T01:31:59.815Z,2.08
2018-12-13T01:32:59.311Z,2.08
2018-12-13T01:33:59.522Z,1.99
2018-12-13T01:34:59.512Z,1.94
2018-12-13T01:35:59.528Z,1.97
2018-12-13T01:36:59.748Z,1.94
2018-12-13T01:37:59.748Z,2.04
2018-12-13T01:38:59.217Z,1.95
2018-12-13T01:39:59.212Z,1.99
2018-12-13T01:40:59.443Z,2.04
2018-12-13T01:41:59.708Z,2.04
2018-12-13T01:42:59.414Z,1.94
2018-12-13T01:43:59.216Z,1.91
2018-12-13T01:44:59.388Z,1.87
2018-12-13T01:45:59.381Z,1.81
2018-12-13T01:46:59.617Z,1.88
2018-12-13T01:47:59.359Z,1.84
2018-12-13T01:48:59.340Z,1.88
2018-12-13T01:49:59.317Z,1.89
2018-12-13T01:50:59.339Z,1.88
2018-12-13T01:51:59.315Z,1.88
2018-12-13T01:52:59.289Z,1.84
2018-12-13T01:53:59.287Z,1.81
2018-12-13T01:54:59.305Z,1.81
2018-12-13T01:55:59.252Z,1.85
2018-12-13T01:56:59.246Z,1.87
2018-12-13T01:57:59.236Z,1.84
2018-12-13T01:58:59.257Z,1.78
2018-12-13T01:59:59.488Z,1.85
2018-12-13T02:00:59.458Z,1.87
2018-12-13T02:01:59.206Z,1.74
2018-12-13T02:02:59.414Z,1.77
2018-12-13T02:03:59.204Z,1.88
2018-12-13T02:04:59.153Z,1.94
2018-12-13T02:05:59.129Z,2
2018-12-13T02:07:03.348Z,1.91
2018-12-13T02:07:59.365Z,1.94
2018-12-13T02:08:59.348Z,1.88
2018-12-13T02:09:59.339Z,1.78
2018-12-13T02:10:59.085Z,1.85
2018-12-13T02:11:59.076Z,1.87
2018-12-13T02:12:59.058Z,1.91
2018-12-13T02:13:59.294Z,1.87
2018-12-13T02:14:59.282Z,1.91
2018-12-13T02:15:59.271Z,1.84
2018-12-13T02:16:59.011Z,1.76
2018-12-13T02:17:58.751Z,1.7
2018-12-13T02:18:59.227Z,1.67
2018-12-13T02:20:00.852Z,1.71
2018-12-13T02:20:59.234Z,1.66
2018-12-13T02:21:58.705Z,1.68
2018-12-13T02:22:58.942Z,1.7
2018-12-13T02:23:59.187Z,1.67
2018-12-13T02:24:58.725Z,1.6
2018-12-13T02:25:59.158Z,1.68
2018-12-13T02:26:58.639Z,1.71
2018-12-13T02:27:59.133Z,1.63
2018-12-13T02:28:58.859Z,1.66
2018-12-13T02:29:59.110Z,1.76
2018-12-13T02:30:59.086Z,1.77
2018-12-13T02:31:59.096Z,1.71
2018-12-13T02:32:59.054Z,1.81
2018-12-13T02:33:59.056Z,1.81
2018-12-13T02:34:58.809Z,1.78
2018-12-13T02:35:58.774Z,1.74
2018-12-13T02:37:05.717Z,1.73
2018-12-13T02:37:58.999Z,1.84
2018-12-13T02:38:58.739Z,1.77
2018-12-13T02:39:58.745Z,1.84
2018-12-13T02:40:58.491Z,1.71
2018-12-13T02:41:58.734Z,1.76
2018-12-13T02:42:58.946Z,1.88
2018-12-13T02:43:58.692Z,1.92
2018-12-13T02:44:58.935Z,1.88
2018-12-13T02:45:58.667Z,1.85
2018-12-13T02:46:58.906Z,1.94
2018-12-13T02:47:58.640Z,2.02
2018-12-13T02:48:58.873Z,2.07
2018-12-13T02:49:59.187Z,2
2018-12-13T02:50:58.383Z,2.1
2018-12-13T02:51:58.644Z,2.07
2018-12-13T02:52:58.856Z,2.06
2018-12-13T02:53:58.821Z,2.06
2018-12-13T02:54:58.803Z,1.99
2018-12-13T02:55:58.539Z,1.99
2018-12-13T02:56:58.802Z,2.08
2018-12-13T02:57:58.528Z,1.95
2018-12-13T02:58:58.530Z,2.04
2018-12-13T02:59:58.502Z,1.94
2018-12-13T03:00:58.493Z,1.99
2018-12-13T03:01:58.727Z,2.07
2018-12-13T03:02:58.213Z,1.94
2018-12-13T03:03:58.710Z,1.91
2018-12-13T03:04:58.691Z,1.95
2018-12-13T03:05:58.682Z,2.07
2018-12-13T03:06:58.706Z,2.07
2018-12-13T03:07:58.671Z,2
2018-12-13T03:08:58.700Z,2.1
2018-12-13T03:09:58.635Z,1.94
2018-12-13T03:10:58.637Z,1.97
2018-12-13T03:11:58.598Z,2.06
2018-12-13T03:12:58.362Z,2.04
2018-12-13T03:13:58.330Z,2
2018-12-13T03:14:58.588Z,2
2018-12-13T03:15:58.574Z,1.87
2018-12-13T03:16:58.556Z,1.85
2018-12-13T03:17:58.296Z,1.84
2018-12-13T03:18:58.519Z,1.8
2018-12-13T03:19:58.270Z,1.78
2018-12-13T03:20:58.015Z,1.76
2018-12-13T03:21:58.244Z,1.76
2018-12-13T03:22:58.236Z,1.81
2018-12-13T03:23:58.468Z,1.92
2018-12-13T03:24:58.207Z,1.97
2018-12-13T03:25:58.204Z,1.91
2018-12-13T03:26:58.213Z,2.06
2018-12-13T03:27:58.427Z,2.04
2018-12-13T03:28:58.169Z,1.92
2018-12-13T03:29:57.934Z,1.89
2018-12-13T03:30:58.172Z,1.92
2018-12-13T03:31:58.455Z,1.94
2018-12-13T03:32:58.405Z,1.88
2018-12-13T03:33:58.111Z,1.74
2018-12-13T03:34:58.342Z,1.8
2018-12-13T03:35:58.342Z,1.71
2018-12-13T03:36:58.097Z,1.88
2018-12-13T03:37:58.318Z,1.88
2018-12-13T03:38:58.310Z,1.85
2018-12-13T03:39:58.291Z,1.8
2018-12-13T03:40:58.282Z,1.85
2018-12-13T03:41:58.022Z,1.76
2018-12-13T03:42:58.014Z,1.74
2018-12-13T03:43:57.744Z,1.88
2018-12-13T03:44:57.979Z,1.76
2018-12-13T03:45:58.218Z,1.76
2018-12-13T03:46:58.201Z,1.74
2018-12-13T03:47:57.987Z,1.62
2018-12-13T03:48:58.203Z,1.68
2018-12-13T03:49:58.173Z,1.53
2018-12-13T03:50:57.915Z,1.59
2018-12-13T03:51:58.162Z,1.53
2018-12-13T03:52:57.885Z,1.55
2018-12-13T03:53:57.886Z,1.56
2018-12-13T03:54:58.137Z,1.55
2018-12-13T03:55:58.102Z,1.55
2018-12-13T03:56:57.855Z,1.63
2018-12-13T03:57:57.600Z,1.6
2018-12-13T03:58:58.089Z,1.6
2018-12-13T03:59:57.821Z,1.55
2018-12-13T04:00:57.799Z,1.55
2018-12-13T04:01:57.783Z,1.49
2018-12-13T04:02:57.775Z,1.48
2018-12-13T04:03:58.027Z,1.55
2018-12-13T04:04:57.772Z,1.58
2018-12-13T04:05:57.725Z,1.48
2018-12-13T04:06:57.733Z,1.49
2018-12-13T04:07:57.714Z,1.52
2018-12-13T04:08:57.945Z,1.5
2018-12-13T04:09:57.926Z,1.53
2018-12-13T04:10:57.925Z,1.55
2018-12-13T04:11:57.663Z,1.52
2018-12-13T04:12:57.938Z,1.63
2018-12-13T04:13:57.873Z,1.63
2018-12-13T04:14:57.864Z,1.6
2018-12-13T04:15:57.866Z,1.56
2018-12-13T04:16:57.880Z,1.66
2018-12-13T04:17:57.847Z,1.59
2018-12-13T04:18:57.821Z,1.56
2018-12-13T04:19:57.817Z,1.6
2018-12-13T04:21:00.767Z,1.67
2018-12-13T04:21:57.550Z,1.7
2018-12-13T04:22:57.810Z,1.63
2018-12-13T04:23:57.763Z,1.68
2018-12-13T04:24:57.765Z,1.68
2018-12-13T04:25:57.747Z,1.63
2018-12-13T04:26:57.731Z,1.59
2018-12-13T04:27:57.718Z,1.62
2018-12-13T04:28:57.715Z,1.7
2018-12-13T04:29:57.707Z,1.62
2018-12-13T04:30:57.684Z,1.6
2018-12-13T04:31:57.668Z,1.76
2018-12-13T04:32:57.658Z,1.76
2018-12-13T04:33:57.660Z,1.71
2018-12-13T04:34:57.373Z,1.77
2018-12-13T04:35:57.376Z,1.73
2018-12-13T04:36:57.607Z,1.73
2018-12-13T04:37:57.597Z,1.77
2018-12-13T04:38:57.347Z,1.74
2018-12-13T04:39:57.344Z,1.74
2018-12-13T04:40:57.322Z,1.84
2018-12-13T04:41:57.311Z,1.85
2018-12-13T04:42:57.552Z,1.92
2018-12-13T04:43:57.038Z,1.89
2018-12-13T04:44:57.530Z,1.99
2018-12-13T04:45:57.533Z,2
2018-12-13T04:46:57.503Z,1.99
2018-12-13T04:47:57.240Z,2.07
2018-12-13T04:48:57.477Z,1.94
2018-12-13T04:49:57.471Z,2.06
2018-12-13T04:50:57.458Z,2
2018-12-13T04:51:56.967Z,2.02
2018-12-13T04:52:57.457Z,1.91
2018-12-13T04:53:57.183Z,1.91
2018-12-13T04:54:57.403Z,1.84
2018-12-13T04:55:56.907Z,1.76
2018-12-13T04:56:56.888Z,1.78
2018-12-13T04:57:57.161Z,1.84
2018-12-13T04:58:57.433Z,1.78
2018-12-13T04:59:57.359Z,1.87
2018-12-13T05:00:57.377Z,1.87
2018-12-13T05:01:57.109Z,1.97
2018-12-13T05:02:56.823Z,1.97
2018-12-13T05:03:57.077Z,2.08
2018-12-13T05:04:57.095Z,2.02
2018-12-13T05:05:56.806Z,2.08
2018-12-13T05:06:57.103Z,2.04
2018-12-13T05:07:56.764Z,2.04
2018-12-13T05:08:57.287Z,2.07
2018-12-13T05:09:57.026Z,2.07
2018-12-13T05:10:57.293Z,2.08
2018-12-13T05:11:57.265Z,2.06
2018-12-13T05:12:57.228Z,1.97
2018-12-13T05:13:56.945Z,2
2018-12-13T05:14:56.926Z,1.95
2018-12-13T05:15:56.933Z,2.04
2018-12-13T05:16:56.724Z,1.95
2018-12-13T05:17:56.920Z,2.04
2018-12-13T05:18:56.922Z,1.95
2018-12-13T05:19:56.877Z,1.95
2018-12-13T05:20:57.168Z,2.04
2018-12-13T05:21:57.099Z,1.89
2018-12-13T05:22:56.618Z,1.91
2018-12-13T05:23:56.831Z,1.84
2018-12-13T05:24:57.076Z,1.8
2018-12-13T05:25:56.826Z,1.77
2018-12-13T05:26:56.797Z,1.91
2018-12-13T05:27:56.530Z,1.88
2018-12-13T05:28:56.774Z,1.91
2018-12-13T05:29:57.006Z,1.87
2018-12-13T05:30:57.020Z,1.94
2018-12-13T05:31:56.991Z,1.92
2018-12-13T05:32:56.745Z,1.91
2018-12-13T05:33:56.720Z,2.06
2018-12-13T05:34:56.697Z,2.07
2018-12-13T05:35:56.455Z,2.07
2018-12-13T05:36:56.950Z,2.02
2018-12-13T05:37:56.659Z,2.1
2018-12-13T05:38:56.684Z,2.08
2018-12-13T05:39:56.677Z,2.13
2018-12-13T05:40:56.631Z,2.1
2018-12-13T05:41:56.362Z,2.13
2018-12-13T05:42:56.607Z,2.24
2018-12-13T05:43:56.615Z,2.13
2018-12-13T05:44:56.593Z,2.14
2018-12-13T05:45:56.327Z,2.31
2018-12-13T05:46:56.817Z,2.2
2018-12-13T05:47:56.301Z,2.33
2018-12-13T05:48:57.049Z,2.26
2018-12-13T05:49:56.283Z,2.42
2018-12-13T05:50:56.772Z,2.31
2018-12-13T05:51:56.504Z,2.46
2018-12-13T05:52:56.514Z,2.39
2018-12-13T05:53:56.482Z,2.36
2018-12-13T05:54:56.717Z,2.32
2018-12-13T05:56:02.541Z,2.2
2018-12-13T05:56:56.445Z,2.26
2018-12-13T05:57:56.498Z,2.22
2018-12-13T05:58:56.180Z,2.14
2018-12-13T05:59:56.677Z,2.13
2018-12-13T06:00:56.851Z,2.22
2018-12-13T06:01:56.642Z,2.29
2018-12-13T06:02:56.386Z,2.14
2018-12-13T06:03:56.640Z,2.11
2018-12-13T06:04:56.362Z,2.14
2018-12-13T06:05:56.352Z,1.99
2018-12-13T06:06:56.100Z,2.14
2018-12-13T06:07:59.831Z,2.11
2018-12-13T06:08:56.580Z,2.04
2018-12-13T06:09:56.300Z,2.04
2018-12-13T06:10:56.310Z,2.07
2018-12-13T06:11:56.534Z,2.07
2018-12-13T06:12:56.013Z,2.1
2018-12-13T06:13:56.512Z,2.1
2018-12-13T06:14:56.497Z,2.25
2018-12-13T06:15:56.227Z,2.2
2018-12-13T06:16:56.470Z,2.15
2018-12-13T06:17:56.234Z,2.26
2018-12-13T06:18:56.198Z,2.2
2018-12-13T06:19:55.945Z,2.15
2018-12-13T06:20:56.427Z,2.08
2018-12-13T06:21:55.935Z,2.1
2018-12-13T06:22:56.171Z,2.13
2018-12-13T06:23:56.502Z,2.17
2018-12-13T06:24:55.904Z,2.13
2018-12-13T06:25:56.158Z,2.13
2018-12-13T06:26:55.869Z,2.18
2018-12-13T06:27:56.121Z,2.14
2018-12-13T06:28:56.342Z,2.14
2018-12-13T06:30:07.201Z,2.2
2018-12-13T06:30:56.372Z,2.22
2018-12-13T06:31:55.811Z,2.22
2018-12-13T06:32:56.293Z,2.26
2018-12-13T06:33:56.290Z,2.13
2018-12-13T06:34:56.033Z,2.15
2018-12-13T06:35:56.252Z,2.25
2018-12-13T06:36:56.247Z,2.24
2018-12-13T06:38:01.150Z,2.31
2018-12-13T06:38:55.983Z,2.43
2018-12-13T06:39:55.973Z,2.39
2018-12-13T06:40:56.204Z,2.44
2018-12-13T06:41:56.197Z,2.42
2018-12-13T06:42:55.682Z,2.47
2018-12-13T06:43:56.931Z,2.49
2018-12-13T06:44:55.670Z,2.35
2018-12-13T06:45:55.911Z,2.43
2018-12-13T06:46:56.145Z,2.36
2018-12-13T06:47:55.883Z,2.32
2018-12-13T06:48:55.867Z,2.24
2018-12-13T06:49:55.614Z,2.26
2018-12-13T06:50:55.601Z,2.31
2018-12-13T06:51:55.583Z,2.29
2018-12-13T06:52:55.823Z,2.24
2018-12-13T06:53:55.809Z,2.26
2018-12-13T06:54:55.545Z,2.42
2018-12-13T06:55:56.043Z,2.33
2018-12-13T06:56:55.798Z,2.43
2018-12-13T06:57:55.513Z,2.36
2018-12-13T06:58:55.767Z,2.39
2018-12-13T06:59:55.813Z,2.36
2018-12-13T07:00:55.730Z,2.36
2018-12-13T07:01:55.716Z,2.43
2018-12-13T07:02:55.970Z,2.5
2018-12-13T07:03:55.687Z,2.43
2018-12-13T07:04:55.954Z,2.54
2018-12-13T07:05:55.671Z,2.38
2018-12-13T07:06:55.669Z,2.29
2018-12-13T07:07:55.906Z,2.38
2018-12-13T07:08:55.888Z,2.38
2018-12-13T07:09:55.644Z,2.24
2018-12-13T07:10:55.885Z,2.18
2018-12-13T07:11:55.872Z,2.1
2018-12-13T07:12:55.603Z,2.29
2018-12-13T07:13:55.859Z,2.24
2018-12-13T07:14:55.583Z,2.25
2018-12-13T07:15:55.575Z,2.31
2018-12-13T07:16:55.800Z,2.33
2018-12-13T07:17:55.817Z,2.46
2018-12-13T07:18:55.795Z,2.43
2018-12-13T07:19:55.272Z,2.39
2018-12-13T07:20:55.285Z,2.36
2018-12-13T07:21:55.264Z,2.42
2018-12-13T07:22:55.490Z,2.29
2018-12-13T07:23:55.494Z,2.42
2018-12-13T07:24:55.727Z,2.46
2018-12-13T07:25:55.241Z,2.47
2018-12-13T07:26:55.695Z,2.39
2018-12-13T07:27:55.193Z,2.42
2018-12-13T07:28:55.188Z,2.47
2018-12-13T07:29:55.423Z,2.42
2018-12-13T07:30:55.436Z,2.39
2018-12-13T07:31:55.639Z,2.35
2018-12-13T07:32:55.146Z,2.42
2018-12-13T07:33:55.361Z,2.5
2018-12-13T07:35:01.085Z,2.38
2018-12-13T07:35:55.584Z,2.38
2018-12-13T07:36:55.579Z,2.35
2018-12-13T07:37:55.322Z,2.31
2018-12-13T07:38:55.064Z,2.22
2018-12-13T07:39:55.301Z,2.31
2018-12-13T07:40:55.306Z,2.28
2018-12-13T07:41:55.529Z,2.35
2018-12-13T07:42:55.286Z,2.38
2018-12-13T07:43:55.524Z,2.36
2018-12-13T07:44:55.494Z,2.28
2018-12-13T07:45:54.996Z,2.43
2018-12-13T07:46:55.224Z,2.33
2018-12-13T07:47:54.970Z,2.38
2018-12-13T07:49:00.839Z,2.39
2018-12-13T07:49:55.452Z,2.28
2018-12-13T07:50:55.171Z,2.32
2018-12-13T07:51:55.415Z,2.26
2018-12-13T07:52:58.597Z,2.24
2018-12-13T07:53:54.909Z,2.26
2018-12-13T07:54:54.930Z,2.35
2018-12-13T07:55:55.359Z,2.32
2018-12-13T07:56:55.413Z,2.32
2018-12-13T07:57:55.356Z,2.33
2018-12-13T07:58:55.353Z,2.38
2018-12-13T07:59:55.331Z,2.36
2018-12-13T08:00:55.305Z,2.29
2018-12-13T08:01:55.062Z,2.26
2018-12-13T08:02:55.304Z,2.25
2018-12-13T08:03:55.046Z,2.28
2018-12-13T08:04:55.259Z,2.29
2018-12-13T08:05:55.019Z,2.33
2018-12-13T08:06:55.234Z,2.31
2018-12-13T08:07:55.019Z,2.42
2018-12-13T08:08:54.995Z,2.42
2018-12-13T08:09:55.198Z,2.49
2018-12-13T08:10:54.972Z,2.39
2018-12-13T08:11:55.193Z,2.5
2018-12-13T08:12:54.958Z,2.42
2018-12-13T08:13:55.163Z,2.39
2018-12-13T08:14:55.156Z,2.36
2018-12-13T08:15:55.156Z,2.35
2018-12-13T08:16:55.146Z,2.28
2018-12-13T08:17:54.871Z,2.33
2018-12-13T08:18:54.858Z,2.42
2018-12-13T08:19:55.093Z,2.56
2018-12-13T08:20:54.603Z,2.54
2018-12-13T08:21:54.830Z,2.53
2018-12-13T08:22:55.076Z,2.53
2018-12-13T08:23:54.557Z,2.56
2018-12-13T08:24:54.553Z,2.53
2018-12-13T08:25:54.805Z,2.51
2018-12-13T08:26:54.788Z,2.51
2018-12-13T08:27:55.037Z,2.51
2018-12-13T08:28:55.032Z,2.64
2018-12-13T08:29:55.006Z,2.6
2018-12-13T08:30:54.501Z,2.53
2018-12-13T08:31:54.715Z,2.6
2018-12-13T08:32:54.488Z,2.57
2018-12-13T08:33:54.457Z,2.64
2018-12-13T08:34:54.689Z,2.75
2018-12-13T08:35:54.667Z,2.68
2018-12-13T08:36:54.662Z,2.72
2018-12-13T08:37:54.904Z,2.77
2018-12-13T08:38:54.660Z,2.77
2018-12-13T08:39:54.623Z,2.69
2018-12-13T08:40:54.885Z,2.77
2018-12-13T08:41:54.868Z,2.89
2018-12-13T08:42:54.835Z,2.77
2018-12-13T08:43:54.600Z,2.85
2018-12-13T08:44:54.830Z,2.86
2018-12-13T08:45:54.832Z,2.9
2018-12-13T08:46:54.805Z,3.03
2018-12-13T08:47:54.545Z,2.86
2018-12-13T08:48:54.780Z,2.97
2018-12-13T08:49:54.541Z,2.92
2018-12-13T08:50:54.753Z,2.75
2018-12-13T08:51:54.509Z,2.72
2018-12-13T08:52:54.743Z,2.75
2018-12-13T08:53:54.733Z,2.69
2018-12-13T08:54:54.712Z,2.64
2018-12-13T08:55:54.711Z,2.54
2018-12-13T08:56:54.709Z,2.33
2018-12-13T08:57:54.682Z,2.38
2018-12-13T08:58:54.668Z,2.31
2018-12-13T08:59:54.416Z,2.38
2018-12-13T09:00:54.152Z,2.5
2018-12-13T09:01:55.307Z,2.61
2018-12-13T09:02:54.392Z,2.6
2018-12-13T09:03:54.626Z,2.79
2018-12-13T09:04:54.599Z,2.82
2018-12-13T09:05:54.351Z,2.71
2018-12-13T09:06:54.332Z,2.8
2018-12-13T09:07:54.078Z,2.86
2018-12-13T09:08:54.546Z,2.87
2018-12-13T09:09:54.546Z,2.87
2018-12-13T09:10:54.051Z,2.89
2018-12-13T09:11:54.285Z,2.82
2018-12-13T09:12:54.269Z,2.92
2018-12-13T09:13:54.522Z,2.9
2018-12-13T09:14:54.495Z,2.86
2018-12-13T09:15:53.990Z,2.83
2018-12-13T09:16:54.475Z,2.86
2018-12-13T09:17:54.476Z,2.86
2018-12-13T09:18:54.207Z,2.67
2018-12-13T09:19:54.461Z,2.72
2018-12-13T09:20:54.472Z,2.71
2018-12-13T09:21:54.185Z,2.79
2018-12-13T09:22:54.224Z,2.71
2018-12-13T09:23:54.400Z,2.77
2018-12-13T09:24:54.151Z,2.71
2018-12-13T09:25:54.400Z,2.79
2018-12-13T09:26:54.128Z,2.85
2018-12-13T09:27:54.363Z,2.85
2018-12-13T09:28:54.350Z,2.71
2018-12-13T09:29:54.353Z,2.62
2018-12-13T09:30:54.078Z,2.61
2018-12-13T09:31:54.065Z,2.6
2018-12-13T09:32:54.307Z,2.57
2018-12-13T09:33:54.288Z,2.57
2018-12-13T09:34:53.788Z,2.65
2018-12-13T09:35:54.030Z,2.74
2018-12-13T09:36:54.285Z,2.72
2018-12-13T09:37:54.260Z,2.79
2018-12-13T09:38:53.983Z,2.75
2018-12-13T09:39:54.231Z,2.68
2018-12-13T09:40:54.214Z,2.67
2018-12-13T09:41:54.216Z,2.72
2018-12-13T09:42:53.947Z,2.74
2018-12-13T09:43:54.185Z,2.75
2018-12-13T09:44:53.923Z,2.71
2018-12-13T09:45:53.668Z,2.72
2018-12-13T09:46:53.899Z,2.72
2018-12-13T09:47:54.164Z,2.69
2018-12-13T09:48:54.238Z,2.69
2018-12-13T09:49:53.898Z,2.62
2018-12-13T09:50:53.864Z,2.61
2018-12-13T09:51:53.861Z,2.61
2018-12-13T09:52:54.083Z,2.56
2018-12-13T09:53:53.846Z,2.62
2018-12-13T09:54:53.576Z,2.72
2018-12-13T09:55:53.836Z,2.71
2018-12-13T09:56:54.049Z,2.79
2018-12-13T09:57:54.031Z,2.69
2018-12-13T09:58:54.037Z,2.79
2018-12-13T09:59:54.019Z,2.74
2018-12-13T10:00:53.750Z,2.77
2018-12-13T10:01:53.999Z,2.71
2018-12-13T10:02:53.724Z,2.71
2018-12-13T10:03:53.971Z,2.79
2018-12-13T10:04:53.721Z,2.89
2018-12-13T10:05:53.692Z,2.82
2018-12-13T10:06:53.676Z,2.82
2018-12-13T10:07:53.939Z,2.74
2018-12-13T10:08:53.672Z,2.68
2018-12-13T10:09:53.942Z,2.8
2018-12-13T10:10:53.929Z,2.89
2018-12-13T10:11:53.631Z,2.86
2018-12-13T10:12:53.634Z,2.92
2018-12-13T10:13:53.604Z,2.87
2018-12-13T10:14:53.859Z,2.9
2018-12-13T10:15:53.610Z,2.93
2018-12-13T10:16:53.830Z,3.05
2018-12-13T10:17:53.567Z,2.97
2018-12-13T10:18:53.819Z,2.95
2018-12-13T10:19:53.548Z,3.03
2018-12-13T10:20:53.819Z,3.14
2018-12-13T10:21:53.778Z,3.14
2018-12-13T10:22:53.549Z,3.14
2018-12-13T10:23:53.756Z,3.11
2018-12-13T10:24:53.744Z,3.11
2018-12-13T10:25:59.351Z,3.14
2018-12-13T10:26:53.225Z,3.11
2018-12-13T10:27:53.695Z,3.21
2018-12-13T10:28:53.512Z,3.07
2018-12-13T10:29:53.692Z,3.14
2018-12-13T10:30:53.429Z,3.14
2018-12-13T10:31:53.416Z,3.18
2018-12-13T10:32:53.432Z,3.1
2018-12-13T10:33:53.155Z,3.28
2018-12-13T10:34:53.645Z,3.26
2018-12-13T10:35:53.369Z,3.29
2018-12-13T10:36:53.657Z,3.41
2018-12-13T10:37:53.375Z,3.28
2018-12-13T10:38:57.658Z,3.23
2018-12-13T10:39:53.620Z,3.23
2018-12-13T10:40:53.629Z,3.21
2018-12-13T10:41:53.559Z,3.26
2018-12-13T10:42:53.316Z,3.23
2018-12-13T10:43:53.559Z,3.21
2018-12-13T10:44:53.034Z,3.25
2018-12-13T10:45:53.542Z,3.28
2018-12-13T10:46:54.102Z,3.28
2018-12-13T10:47:53.489Z,3.21
2018-12-13T10:48:53.259Z,3.19
2018-12-13T10:49:53.481Z,3.32
2018-12-13T10:50:53.220Z,3.36
2018-12-13T10:51:53.210Z,3.28
2018-12-13T10:52:53.444Z,3.34
2018-12-13T10:53:53.437Z,3.26
2018-12-13T10:54:53.171Z,3.23
2018-12-13T10:55:53.412Z,3.23
2018-12-13T10:56:53.168Z,3.28
2018-12-13T10:57:53.140Z,3.32
2018-12-13T10:58:53.376Z,3.22
2018-12-13T10:59:53.163Z,3.28
2018-12-13T11:00:53.121Z,3.31
2018-12-13T11:01:53.129Z,3.25
2018-12-13T11:02:53.343Z,3.28
2018-12-13T11:03:53.079Z,3.25
2018-12-13T11:04:53.084Z,3.23
2018-12-13T11:05:53.071Z,3.18
2018-12-13T11:06:53.101Z,3.22
2018-12-13T11:07:53.282Z,3.23
2018-12-13T11:08:59.199Z,3.22
2018-12-13T11:09:53.035Z,3.32
2018-12-13T11:10:53.025Z,3.34
2018-12-13T11:11:52.997Z,3.21
2018-12-13T11:12:52.745Z,3.36
2018-12-13T11:13:52.987Z,3.37
2018-12-13T11:14:53.212Z,3.37
2018-12-13T11:15:53.207Z,3.42
2018-12-13T11:16:53.227Z,3.51
2018-12-13T11:17:52.930Z,3.45
2018-12-13T11:18:53.167Z,3.41
2018-12-13T11:19:53.174Z,3.47
2018-12-13T11:20:52.923Z,3.5
2018-12-13T11:21:52.933Z,3.45
2018-12-13T11:22:52.891Z,3.41
2018-12-13T11:23:53.121Z,3.34
2018-12-13T11:24:53.383Z,3.23
2018-12-13T11:25:52.844Z,3.31
2018-12-13T11:26:52.840Z,3.31
2018-12-13T11:27:52.846Z,3.31
2018-12-13T11:28:52.838Z,3.28
2018-12-13T11:29:52.566Z,3.29
2018-12-13T11:30:53.063Z,3.25
2018-12-13T11:31:52.811Z,3.23
2018-12-13T11:32:53.048Z,3.11
2018-12-13T11:33:52.775Z,3.13
2018-12-13T11:34:52.797Z,3.26
2018-12-13T11:35:52.762Z,3.19
2018-12-13T11:36:52.748Z,3.22
2018-12-13T11:37:52.752Z,3.26
2018-12-13T11:38:52.981Z,3.28
2018-12-13T11:39:52.960Z,3.25
2018-12-13T11:40:52.957Z,3.18
2018-12-13T11:41:52.704Z,3.22
2018-12-13T11:42:52.926Z,3.26
2018-12-13T11:43:52.680Z,3.26
2018-12-13T11:44:52.912Z,3.1
2018-12-13T11:45:52.418Z,3.14
2018-12-13T11:46:52.660Z,3.16
2018-12-13T11:47:52.615Z,3.07
2018-12-13T11:48:52.843Z,3.14
2018-12-13T11:49:52.588Z,3.11
2018-12-13T11:50:52.820Z,3.11
2018-12-13T11:51:52.599Z,3.21
2018-12-13T11:52:52.579Z,3.04
2018-12-13T11:53:52.578Z,3.04
2018-12-13T11:54:53.503Z,3.14
2018-12-13T11:55:52.544Z,3.05
2018-12-13T11:56:52.786Z,3.07
2018-12-13T11:57:52.757Z,2.97
2018-12-13T11:58:52.516Z,2.95
2018-12-13T11:59:52.745Z,2.9
2018-12-13T12:00:52.769Z,2.92
2018-12-13T12:01:52.482Z,2.98
2018-12-13T12:02:52.470Z,2.86
2018-12-13T12:03:52.456Z,2.83
2018-12-13T12:04:52.459Z,2.8
2018-12-13T12:05:52.204Z,2.87
2018-12-13T12:06:52.179Z,2.89
2018-12-13T12:07:52.426Z,2.9
2018-12-13T12:08:52.653Z,2.82
2018-12-13T12:09:52.643Z,2.75
2018-12-13T12:10:52.396Z,2.82
2018-12-13T12:11:52.636Z,2.92
2018-12-13T12:12:52.118Z,2.83
2018-12-13T12:13:52.605Z,3
2018-12-13T12:14:52.110Z,2.89
2018-12-13T12:15:52.351Z,2.92
2018-12-13T12:16:52.349Z,2.9
2018-12-13T12:17:52.562Z,2.89
2018-12-13T12:18:52.561Z,2.86
2018-12-13T12:19:52.540Z,2.85
2018-12-13T12:20:52.286Z,2.71
2018-12-13T12:21:52.523Z,2.72
2018-12-13T12:22:52.255Z,2.72
2018-12-13T12:23:52.256Z,2.72
2018-12-13T12:24:52.490Z,2.83
2018-12-13T12:25:52.246Z,2.82
2018-12-13T12:26:52.238Z,2.74
2018-12-13T12:27:52.225Z,2.82
2018-12-13T12:28:52.446Z,2.77
2018-12-13T12:29:52.178Z,2.79
2018-12-13T12:30:52.418Z,2.83
2018-12-13T12:31:52.418Z,2.79
2018-12-13T12:32:52.153Z,2.93
2018-12-13T12:33:52.142Z,2.8
2018-12-13T12:34:52.372Z,2.89
2018-12-13T12:35:52.145Z,2.75
2018-12-13T12:36:52.368Z,2.82
2018-12-13T12:37:52.123Z,2.79
2018-12-13T12:38:52.094Z,2.82
2018-12-13T12:39:52.336Z,2.85
2018-12-13T12:40:52.315Z,2.82
2018-12-13T12:41:52.049Z,2.8
2018-12-13T12:42:52.042Z,2.92
2018-12-13T12:43:51.785Z,2.85
2018-12-13T12:44:52.272Z,2.82
2018-12-13T12:45:52.014Z,2.75
2018-12-13T12:46:52.264Z,2.69
2018-12-13T12:47:52.002Z,2.69
2018-12-13T12:48:52.235Z,2.69
2018-12-13T12:49:51.803Z,2.68
2018-12-13T12:50:52.208Z,2.6
2018-12-13T12:51:51.945Z,2.53
2018-12-13T12:52:51.927Z,2.64
2018-12-13T12:53:52.188Z,2.6
2018-12-13T12:54:52.159Z,2.61
2018-12-13T12:55:51.898Z,2.61
2018-12-13T12:56:52.132Z,2.72
2018-12-13T12:57:51.637Z,2.75
2018-12-13T12:58:51.655Z,2.79
2018-12-13T12:59:52.124Z,2.85
2018-12-13T13:00:52.099Z,2.85
2018-12-13T13:01:52.094Z,2.71
2018-12-13T13:02:52.242Z,2.69
2018-12-13T13:03:51.835Z,2.68
2018-12-13T13:04:51.810Z,2.69
2018-12-13T13:05:52.046Z,2.72
2018-12-13T13:06:51.787Z,2.75
2018-12-13T13:07:52.029Z,2.79
2018-12-13T13:08:52.030Z,2.8
2018-12-13T13:09:51.753Z,2.85
2018-12-13T13:10:51.972Z,2.74
2018-12-13T13:11:51.990Z,2.74
2018-12-13T13:12:51.712Z,2.68
2018-12-13T13:13:51.700Z,2.69
2018-12-13T13:14:51.957Z,2.74
2018-12-13T13:15:51.928Z,2.57
2018-12-13T13:16:51.668Z,2.61
2018-12-13T13:17:51.898Z,2.57
2018-12-13T13:18:51.397Z,2.6
2018-12-13T13:19:51.639Z,2.5
2018-12-13T13:20:51.873Z,2.42